createdAt,value
2023-04-05T00:01:19.646Z,101908.63
2023-04-05T00:03:50.622Z,101895.31
2023-04-05T00:06:22.233Z,101896.25
2023-04-05T00:08:55.814Z,101894.94
2023-04-05T00:11:26.614Z,101900.09
2023-04-05T00:14:00.321Z,101897.16
2023-04-05T00:16:32.146Z,101894.47
2023-04-05T00:19:02.966Z,101889.28
2023-04-05T00:21:33.544Z,101860.41
2023-04-05T00:24:04.057Z,101892.22
2023-04-05T00:26:34.665Z,101894.94
2023-04-05T00:29:08.015Z,101892.28
2023-04-05T00:31:38.516Z,101888.00
2023-04-05T00:34:10.552Z,101888.28
2023-04-05T00:36:41.376Z,101888.75
2023-04-05T00:39:11.924Z,101891.50
2023-04-05T00:41:45.724Z,101901.28
2023-04-05T00:44:20.114Z,101901.06
2023-04-05T00:46:51.457Z,101889.34
2023-04-05T00:49:22.342Z,101894.75
2023-04-05T00:51:52.997Z,101889.34
2023-04-05T00:54:23.701Z,101896.41
2023-04-05T00:56:55.117Z,101896.84
2023-04-05T00:59:29.247Z,101868.22
2023-04-05T01:02:09.122Z,101871.84
2023-04-05T01:04:41.740Z,101887.16
2023-04-05T01:07:20.399Z,101885.34
2023-04-05T01:09:58.881Z,101882.41
2023-04-05T01:12:33.714Z,101884.91
2023-04-05T01:15:07.777Z,101876.31
2023-04-05T01:17:39.611Z,101877.22
2023-04-05T01:20:13.418Z,101875.41
2023-04-05T01:23:14.960Z,101874.28
2023-04-05T01:26:17.020Z,101874.28
2023-04-05T01:29:17.948Z,101843.84
2023-04-05T01:31:59.849Z,101866.38
2023-04-05T01:34:43.206Z,101863.66
2023-04-05T01:37:18.684Z,101865.28
2023-04-05T01:39:51.111Z,101862.78
2023-04-05T01:42:27.431Z,101857.13
2023-04-05T01:45:00.155Z,101859.84
2023-04-05T01:47:33.404Z,101861.41
2023-04-05T01:50:04.570Z,101859.84
2023-04-05T01:52:35.187Z,101865.00
2023-04-05T01:55:06.311Z,101858.25
2023-04-05T01:57:37.161Z,101859.38
2023-04-05T02:00:09.168Z,101855.78
2023-04-05T02:02:46.276Z,101841.56
2023-04-05T02:05:17.239Z,101864.34
2023-04-05T02:07:48.055Z,101864.34
2023-04-05T02:10:18.858Z,101851.47
2023-04-05T02:12:49.502Z,101849.91
2023-04-05T02:15:20.252Z,101863.00
2023-04-05T02:17:54.380Z,101855.34
2023-04-05T02:20:26.061Z,101856.03
2023-04-05T02:22:56.739Z,101860.97
2023-04-05T02:25:27.457Z,101861.63
2023-04-05T02:27:58.068Z,101855.59
2023-04-05T02:30:29.422Z,101862.34
2023-04-05T02:33:03.582Z,101856.69
2023-04-05T02:35:34.086Z,101856.47
2023-04-05T02:38:04.903Z,101856.03
2023-04-05T02:40:42.299Z,101845.41
2023-04-05T02:43:13.256Z,101853.97
2023-04-05T02:45:46.263Z,101848.56
2023-04-05T02:48:20.912Z,101821.53
2023-04-05T02:50:52.474Z,101847.00
2023-04-05T02:53:23.875Z,101830.75
2023-04-05T02:56:01.215Z,101843.84
2023-04-05T02:58:33.052Z,101834.13
2023-04-05T03:01:07.552Z,101835.50
2023-04-05T03:03:42.420Z,101829.41
2023-04-05T03:06:13.674Z,101828.53
2023-04-05T03:08:51.143Z,101822.66
2023-04-05T03:11:26.189Z,101821.53
2023-04-05T03:14:00.878Z,101819.25
2023-04-05T03:16:40.479Z,101815.44
2023-04-05T03:19:29.700Z,101814.53
2023-04-05T03:22:11.269Z,101816.34
2023-04-05T03:24:42.826Z,101815.66
2023-04-05T03:27:15.779Z,101809.13
2023-04-05T03:30:02.570Z,101816.34
2023-04-05T03:32:36.454Z,101818.81
2023-04-05T03:35:25.940Z,101807.31
2023-04-05T03:37:56.782Z,101799.66
2023-04-05T03:40:27.532Z,101811.13
2023-04-05T03:42:58.162Z,101813.41
2023-04-05T03:45:29.785Z,101809.34
2023-04-05T03:48:01.348Z,101816.31
2023-04-05T03:50:35.012Z,101806.41
2023-04-05T03:53:06.086Z,101815.88
2023-04-05T03:55:36.737Z,101812.97
2023-04-05T03:58:09.951Z,101821.75
2023-04-05T04:00:40.586Z,101816.78
2023-04-05T04:03:26.226Z,101808.66
2023-04-05T04:05:59.792Z,101813.19
2023-04-05T04:08:31.763Z,101806.19
2023-04-05T04:11:03.587Z,101814.09
2023-04-05T04:13:37.968Z,101817.25
2023-04-05T04:16:37.502Z,101806.63
2023-04-05T04:19:27.390Z,101811.38
2023-04-05T04:22:13.403Z,101818.16
2023-04-05T04:24:46.575Z,101812.28
2023-04-05T04:27:54.967Z,101821.28
2023-04-05T04:30:43.624Z,101817.94
2023-04-05T04:33:46.864Z,101820.41
2023-04-05T04:36:19.013Z,101819.72
2023-04-05T04:39:05.787Z,101816.59
2023-04-05T04:41:56.170Z,101810.72
2023-04-05T04:44:42.838Z,101812.06
2023-04-05T04:47:27.848Z,101819.50
2023-04-05T04:50:11.829Z,101824.91
2023-04-05T04:52:42.725Z,101823.81
2023-04-05T04:55:16.482Z,101817.69
2023-04-05T04:57:50.531Z,101810.00
2023-04-05T05:00:21.902Z,101815.00
2023-04-05T05:02:53.665Z,101789.94
2023-04-05T05:05:26.783Z,101839.31
2023-04-05T05:07:57.397Z,101828.28
2023-04-05T05:10:30.610Z,101822.16
2023-04-05T05:13:05.756Z,101822.16
2023-04-05T05:15:36.641Z,101821.00
2023-04-05T05:18:07.406Z,101828.44
2023-04-05T05:20:38.169Z,101825.28
2023-04-05T05:23:08.782Z,101827.97
2023-04-05T05:25:42.771Z,101824.81
2023-04-05T05:28:13.383Z,101818.94
2023-04-05T05:30:44.201Z,101818.47
2023-04-05T05:33:15.009Z,101815.28
2023-04-05T05:35:46.653Z,101814.09
2023-04-05T05:38:17.574Z,101815.38
2023-04-05T05:40:50.866Z,101825.00
2023-04-05T05:43:21.294Z,101826.97
2023-04-05T05:45:51.946Z,101820.81
2023-04-05T05:48:22.626Z,101814.66
2023-04-05T05:50:54.683Z,101813.97
2023-04-05T05:53:25.175Z,101820.94
2023-04-05T05:55:58.368Z,101803.31
2023-04-05T05:58:28.888Z,101811.91
2023-04-05T06:01:00.125Z,101810.97
2023-04-05T06:03:30.780Z,101811.09
2023-04-05T06:06:03.424Z,101805.88
2023-04-05T06:08:34.024Z,101811.97
2023-04-05T06:11:07.522Z,101815.63
2023-04-05T06:13:38.149Z,101813.22
2023-04-05T06:16:09.164Z,101813.06
2023-04-05T06:18:40.344Z,101811.69
2023-04-05T06:21:11.000Z,101818.44
2023-04-05T06:23:42.108Z,101812.16
2023-04-05T06:26:20.687Z,101803.72
2023-04-05T06:28:51.399Z,101816.94
2023-04-05T06:31:23.865Z,101814.34
2023-04-05T06:33:54.737Z,101803.19
2023-04-05T06:36:27.402Z,101815.25
2023-04-05T06:38:59.567Z,101806.81
2023-04-05T06:41:32.852Z,101814.63
2023-04-05T06:44:04.329Z,101795.66
2023-04-05T06:46:35.204Z,101811.00
2023-04-05T06:49:06.156Z,101814.97
2023-04-05T06:51:36.796Z,101813.28
2023-04-05T06:54:07.635Z,101817.44
2023-04-05T06:56:40.882Z,101815.00
2023-04-05T06:59:11.480Z,101803.72
2023-04-05T07:01:42.596Z,101810.91
2023-04-05T07:04:13.271Z,101811.47
2023-04-05T07:06:43.892Z,101806.75
2023-04-05T07:09:14.527Z,101797.59
2023-04-05T07:11:47.858Z,101798.44
2023-04-05T07:14:18.476Z,101803.00
2023-04-05T07:16:49.827Z,101791.88
2023-04-05T07:19:20.718Z,101790.41
2023-04-05T07:21:51.541Z,101784.06
2023-04-05T07:24:22.716Z,101795.63
2023-04-05T07:26:57.093Z,101789.13
2023-04-05T07:29:27.914Z,101789.25
2023-04-05T07:31:58.971Z,101792.09
2023-04-05T07:34:29.517Z,101787.78
2023-04-05T07:37:00.826Z,101796.09
2023-04-05T07:39:31.464Z,101786.44
2023-04-05T07:42:04.689Z,101784.19
2023-04-05T07:44:35.300Z,101773.78
2023-04-05T07:47:06.227Z,101788.59
2023-04-05T07:49:38.087Z,101785.72
2023-04-05T07:52:09.102Z,101783.56
2023-04-05T07:54:43.459Z,101782.56
2023-04-05T07:57:19.069Z,101792.38
2023-04-05T07:59:51.142Z,101792.00
2023-04-05T08:02:21.913Z,101783.31
2023-04-05T08:04:52.498Z,101794.16
2023-04-05T08:07:23.160Z,101792.47
2023-04-05T08:09:53.874Z,101788.00
2023-04-05T08:12:27.200Z,101787.50
2023-04-05T08:14:58.000Z,101788.41
2023-04-05T08:17:29.323Z,101772.31
2023-04-05T08:20:00.127Z,101783.72
2023-04-05T08:22:31.980Z,101785.38
2023-04-05T08:25:02.878Z,101784.28
2023-04-05T08:27:36.319Z,101771.34
2023-04-05T08:30:09.047Z,101773.09
2023-04-05T08:32:39.866Z,101779.78
2023-04-05T08:35:11.313Z,101779.97
2023-04-05T08:37:41.857Z,101775.16
2023-04-05T08:40:14.645Z,101775.97
2023-04-05T08:42:55.173Z,101767.38
2023-04-05T08:45:27.334Z,101776.69
2023-04-05T08:47:58.078Z,101773.16
2023-04-05T08:50:28.825Z,101772.69
2023-04-05T08:52:59.484Z,101765.13
2023-04-05T08:55:30.014Z,101765.06
2023-04-05T08:58:05.473Z,101761.81
2023-04-05T09:00:36.418Z,101762.44
2023-04-05T09:03:07.939Z,101751.97
2023-04-05T09:05:40.922Z,101760.44
2023-04-05T09:08:12.343Z,101762.56
2023-04-05T09:10:43.446Z,101747.66
2023-04-05T09:13:16.652Z,101751.50
2023-04-05T09:15:48.286Z,101754.53
2023-04-05T09:18:26.300Z,101736.44
2023-04-05T09:21:06.697Z,101755.28
2023-04-05T09:23:37.932Z,101758.13
2023-04-05T09:26:21.992Z,101753.59
2023-04-05T09:28:58.059Z,101751.78
2023-04-05T09:31:39.450Z,101747.84
2023-04-05T09:34:13.137Z,101744.69
2023-04-05T09:36:47.123Z,101742.72
2023-04-05T09:39:21.851Z,101741.28
2023-04-05T09:42:12.110Z,101736.25
2023-04-05T09:45:01.665Z,101738.06
2023-04-05T09:47:35.678Z,101719.06
2023-04-05T09:50:23.355Z,101739.47
2023-04-05T09:53:08.649Z,101740.34
2023-04-05T09:55:41.254Z,101731.38
2023-04-05T09:58:15.559Z,101733.38
2023-04-05T10:01:09.844Z,101743.59
2023-04-05T10:03:50.209Z,101741.22
2023-04-05T10:06:21.811Z,101722.22
2023-04-05T10:08:54.514Z,101733.63
2023-04-05T10:11:27.636Z,101738.25
2023-04-05T10:13:58.625Z,101730.66
2023-04-05T10:16:35.701Z,101720.16
2023-04-05T10:19:10.328Z,101705.47
2023-04-05T10:21:46.709Z,101718.34
2023-04-05T10:24:25.659Z,101726.41
2023-04-05T10:27:06.496Z,101707.91
2023-04-05T10:29:53.596Z,101713.44
2023-04-05T10:32:38.890Z,101712.34
2023-04-05T10:35:13.265Z,101702.66
2023-04-05T10:37:57.007Z,101715.66
2023-04-05T10:40:34.998Z,101706.63
2023-04-05T10:43:07.358Z,101677.91
2023-04-05T10:45:41.964Z,101696.75
2023-04-05T10:48:21.969Z,101694.03
2023-04-05T10:50:53.302Z,101701.75
2023-04-05T10:53:25.150Z,101692.28
2023-04-05T10:55:58.562Z,101690.78
2023-04-05T10:58:30.268Z,101693.72
2023-04-05T11:01:02.489Z,101692.50
2023-04-05T11:03:55.209Z,101691.50
2023-04-05T11:06:27.836Z,101686.63
2023-04-05T11:09:00.641Z,101676.78
2023-04-05T11:11:41.926Z,101679.25
2023-04-05T11:14:25.528Z,101680.19
2023-04-05T11:17:00.015Z,101670.19
2023-04-05T11:19:57.020Z,101666.66
2023-04-05T11:22:30.684Z,101642.50
2023-04-05T11:25:03.352Z,101671.19
2023-04-05T11:27:37.519Z,101671.81
2023-04-05T11:30:09.801Z,101665.31
2023-04-05T11:32:45.069Z,101660.38
2023-04-05T11:35:23.555Z,101661.84
2023-04-05T11:37:59.019Z,101653.56
2023-04-05T11:40:34.480Z,101646.81
2023-04-05T11:43:07.731Z,101650.22
2023-04-05T11:45:41.033Z,101649.22
2023-04-05T11:48:14.442Z,101646.16
2023-04-05T11:50:50.318Z,101645.66
2023-04-05T11:53:21.638Z,101646.19
2023-04-05T11:55:55.591Z,101641.34
2023-04-05T11:58:28.684Z,101632.94
2023-04-05T12:01:01.978Z,101623.72
2023-04-05T12:03:33.409Z,101624.03
2023-04-05T12:06:08.577Z,101625.16
2023-04-05T12:08:50.088Z,101629.00
2023-04-05T12:11:27.851Z,101626.16
2023-04-05T12:13:59.847Z,101615.97
2023-04-05T12:16:31.217Z,101625.25
2023-04-05T12:19:03.621Z,101625.22
2023-04-05T12:21:37.372Z,101600.97
2023-04-05T12:24:09.143Z,101612.81
2023-04-05T12:26:40.495Z,101623.06
2023-04-05T12:29:11.299Z,101609.78
2023-04-05T12:31:42.939Z,101618.03
2023-04-05T12:34:14.858Z,101614.66
2023-04-05T12:36:49.612Z,101608.22
2023-04-05T12:39:20.572Z,101598.34
2023-04-05T12:42:00.312Z,101594.69
2023-04-05T12:44:32.699Z,101597.72
2023-04-05T12:47:09.734Z,101592.78
2023-04-05T12:49:41.145Z,101591.22
2023-04-05T12:52:22.798Z,101581.41
2023-04-05T12:54:57.779Z,101581.78
2023-04-05T12:57:34.149Z,101569.19
2023-04-05T13:00:05.487Z,101577.00
2023-04-05T13:02:36.147Z,101577.06
2023-04-05T13:05:07.233Z,101563.47
2023-04-05T13:07:40.477Z,101562.38
2023-04-05T13:10:13.122Z,101560.19
2023-04-05T13:12:43.710Z,101562.59
2023-04-05T13:15:14.544Z,101562.22
2023-04-05T13:17:46.141Z,101559.84
2023-04-05T13:20:16.799Z,101533.41
2023-04-05T13:22:50.714Z,101549.50
2023-04-05T13:25:21.397Z,101545.28
2023-04-05T13:27:52.260Z,101543.13
2023-04-05T13:30:23.287Z,101541.66
2023-04-05T13:32:53.998Z,101540.91
2023-04-05T13:35:24.793Z,101526.69
2023-04-05T13:37:58.204Z,101521.59
2023-04-05T13:40:28.850Z,101541.03
2023-04-05T13:42:59.600Z,101537.13
2023-04-05T13:45:31.643Z,101512.72
2023-04-05T13:48:03.718Z,101514.97
2023-04-05T13:50:34.438Z,101526.31
2023-04-05T13:53:07.689Z,101516.03
2023-04-05T13:55:38.343Z,101516.78
2023-04-05T13:58:09.244Z,101516.03
2023-04-05T14:00:41.816Z,101503.47
2023-04-05T14:03:12.790Z,101510.19
2023-04-05T14:05:43.510Z,101498.97
2023-04-05T14:08:16.786Z,101507.97
2023-04-05T14:10:47.514Z,101503.50
2023-04-05T14:13:18.636Z,101494.13
2023-04-05T14:15:49.751Z,101491.38
2023-04-05T14:18:20.598Z,101500.44
2023-04-05T14:20:51.573Z,101496.59
2023-04-05T14:23:27.196Z,101490.75
2023-04-05T14:25:58.102Z,101486.66
2023-04-05T14:28:28.804Z,101490.31
2023-04-05T14:30:59.967Z,101483.19
2023-04-05T14:33:30.878Z,101485.00
2023-04-05T14:36:01.793Z,101480.06
2023-04-05T14:38:35.289Z,101469.34
2023-04-05T14:41:06.344Z,101473.34
2023-04-05T14:43:37.315Z,101479.59
2023-04-05T14:46:08.644Z,101473.00
2023-04-05T14:48:39.649Z,101477.56
2023-04-05T14:51:10.615Z,101455.31
2023-04-05T14:53:44.257Z,101473.38
2023-04-05T14:56:15.007Z,101466.78
2023-04-05T14:58:45.854Z,101472.34
2023-04-05T15:01:16.730Z,101461.94
2023-04-05T15:03:48.545Z,101462.31
2023-04-05T15:06:20.079Z,101454.38
2023-04-05T15:08:59.504Z,101464.59
2023-04-05T15:11:34.289Z,101458.19
2023-04-05T15:14:04.913Z,101450.13
2023-04-05T15:16:35.673Z,101445.88
2023-04-05T15:19:06.718Z,101467.44
2023-04-05T15:21:39.224Z,101461.28
2023-04-05T15:24:13.724Z,101463.88
2023-04-05T15:26:44.436Z,101454.25
2023-04-05T15:29:15.184Z,101453.28
2023-04-05T15:31:46.476Z,101456.66
2023-04-05T15:34:17.290Z,101459.53
2023-04-05T15:36:48.175Z,101458.41
2023-04-05T15:39:21.848Z,101459.34
2023-04-05T15:41:53.038Z,101468.56
2023-04-05T15:44:23.843Z,101463.53
2023-04-05T15:46:54.734Z,101456.75
2023-04-05T15:49:25.798Z,101443.59
2023-04-05T15:51:56.707Z,101453.41
2023-04-05T15:54:30.343Z,101450.63
2023-04-05T15:57:02.176Z,101417.59
2023-04-05T15:59:33.609Z,101434.88
2023-04-05T16:02:05.347Z,101452.38
2023-04-05T16:04:36.261Z,101449.91
2023-04-05T16:07:07.899Z,101446.69
2023-04-05T16:09:41.392Z,101445.34
2023-04-05T16:12:12.247Z,101434.38
2023-04-05T16:14:43.142Z,101444.09
2023-04-05T16:17:14.050Z,101447.56
2023-04-05T16:19:44.947Z,101447.09
2023-04-05T16:22:16.117Z,101454.84
2023-04-05T16:24:49.561Z,101442.53
2023-04-05T16:27:20.444Z,101443.09
2023-04-05T16:29:51.423Z,101432.22
2023-04-05T16:32:22.755Z,101415.13
2023-04-05T16:34:53.928Z,101429.81
2023-04-05T16:37:24.814Z,101433.94
2023-04-05T16:39:58.237Z,101434.47
2023-04-05T16:42:29.085Z,101433.28
2023-04-05T16:45:01.915Z,101418.88
2023-04-05T16:47:32.779Z,101429.78
2023-04-05T16:50:03.657Z,101418.22
2023-04-05T16:52:34.636Z,101433.31
2023-04-05T16:55:08.678Z,101433.72
2023-04-05T16:57:39.755Z,101435.53
2023-04-05T17:00:12.082Z,101431.94
2023-04-05T17:02:43.005Z,101437.53
2023-04-05T17:05:14.321Z,101438.78
2023-04-05T17:07:45.464Z,101432.66
2023-04-05T17:10:19.132Z,101438.59
2023-04-05T17:12:50.167Z,101423.00
2023-04-05T17:15:21.394Z,101429.28
2023-04-05T17:17:52.973Z,101422.66
2023-04-05T17:20:23.983Z,101423.03
2023-04-05T17:22:58.412Z,101424.63
2023-04-05T17:25:31.924Z,101418.19
2023-04-05T17:28:03.335Z,101426.44
2023-04-05T17:30:34.963Z,101425.88
2023-04-05T17:33:05.937Z,101416.94
2023-04-05T17:35:36.884Z,101424.25
2023-04-05T17:38:07.786Z,101417.31
2023-04-05T17:40:41.089Z,101420.16
2023-04-05T17:43:12.907Z,101427.31
2023-04-05T17:45:43.873Z,101430.19
2023-04-05T17:48:14.873Z,101425.69
2023-04-05T17:50:45.718Z,101432.13
2023-04-05T17:53:17.431Z,101428.38
2023-04-05T17:55:50.873Z,101428.38
2023-04-05T17:58:21.923Z,101430.50
2023-04-05T18:00:53.460Z,101427.63
2023-04-05T18:03:24.454Z,101427.28
2023-04-05T18:05:55.490Z,101426.91
2023-04-05T18:08:29.175Z,101425.84
2023-04-05T18:11:03.454Z,101420.81
2023-04-05T18:13:34.244Z,101424.00
2023-04-05T18:16:05.050Z,101426.00
2023-04-05T18:18:36.105Z,101423.84
2023-04-05T18:21:07.666Z,101425.09
2023-04-05T18:23:38.408Z,101431.84
2023-04-05T18:26:13.943Z,101436.84
2023-04-05T18:28:44.777Z,101430.06
2023-04-05T18:31:16.097Z,101429.69
2023-04-05T18:33:46.957Z,101438.44
2023-04-05T18:36:17.812Z,101437.88
2023-04-05T18:38:48.947Z,101448.94
2023-04-05T18:41:22.458Z,101453.59
2023-04-05T18:43:56.559Z,101450.00
2023-04-05T18:46:27.588Z,101444.94
2023-04-05T18:48:58.654Z,101436.16
2023-04-05T18:51:30.059Z,101447.78
2023-04-05T18:54:01.220Z,101445.66
2023-04-05T18:56:34.752Z,101448.09
2023-04-05T18:59:06.140Z,101443.41
2023-04-05T19:01:37.334Z,101429.97
2023-04-05T19:04:08.594Z,101450.06
2023-04-05T19:06:39.834Z,101448.44
2023-04-05T19:09:11.982Z,101449.84
2023-04-05T19:11:45.625Z,101460.25
2023-04-05T19:14:16.592Z,101457.00
2023-04-05T19:16:47.474Z,101447.75
2023-04-05T19:19:19.276Z,101454.50
2023-04-05T19:21:50.124Z,101454.16
2023-04-05T19:24:22.174Z,101441.06
2023-04-05T19:26:57.132Z,101452.16
2023-04-05T19:29:28.050Z,101458.03
2023-04-05T19:31:58.990Z,101462.66
2023-04-05T19:34:29.878Z,101458.53
2023-04-05T19:37:02.314Z,101439.69
2023-04-05T19:39:33.600Z,101456.53
2023-04-05T19:42:08.272Z,101459.53
2023-04-05T19:44:47.861Z,101449.13
2023-04-05T19:47:22.929Z,101455.41
2023-04-05T19:49:56.669Z,101465.72
2023-04-05T19:52:39.569Z,101458.88
2023-04-05T19:55:30.997Z,101454.03
2023-04-05T19:58:06.648Z,101435.34
2023-04-05T20:00:41.496Z,101462.75
2023-04-05T20:03:32.392Z,101458.06
2023-04-05T20:06:11.372Z,101460.19
2023-04-05T20:08:44.159Z,101460.53
2023-04-05T20:11:16.600Z,101447.75
2023-04-05T20:13:52.204Z,101451.75
2023-04-05T20:16:28.780Z,101454.94
2023-04-05T20:19:01.702Z,101447.94
2023-04-05T20:21:32.900Z,101446.31
2023-04-05T20:24:04.903Z,101444.91
2023-04-05T20:26:36.465Z,101434.06
2023-04-05T20:29:12.194Z,101428.53
2023-04-05T20:31:43.630Z,101446.50
2023-04-05T20:34:16.664Z,101452.56
2023-04-05T20:36:51.135Z,101430.34
2023-04-05T20:39:23.928Z,101447.41
2023-04-05T20:41:56.059Z,101422.97
2023-04-05T20:44:30.638Z,101423.47
2023-04-05T20:47:01.643Z,101446.13
2023-04-05T20:49:32.878Z,101445.81
2023-04-05T20:52:07.862Z,101455.56
2023-04-05T20:54:38.883Z,101410.75
2023-04-05T20:57:09.980Z,101445.44
2023-04-05T20:59:46.819Z,101436.59
2023-04-05T21:02:17.976Z,101444.59
2023-04-05T21:04:50.728Z,101439.53
2023-04-05T21:07:22.207Z,101444.53
2023-04-05T21:09:53.396Z,101433.75
2023-04-05T21:12:24.373Z,101442.16
2023-04-05T21:15:00.445Z,101427.09
2023-04-05T21:17:31.750Z,101433.69
2023-04-05T21:20:02.605Z,101412.47
2023-04-05T21:22:33.748Z,101429.31
2023-04-05T21:25:08.738Z,101429.69
2023-04-05T21:27:39.540Z,101421.13
2023-04-05T21:30:17.498Z,101418.31
2023-04-05T21:32:48.583Z,101422.63
2023-04-05T21:35:20.218Z,101434.00
2023-04-05T21:37:51.383Z,101428.22
2023-04-05T21:40:22.926Z,101421.97
2023-04-05T21:42:54.058Z,101429.25
2023-04-05T21:45:28.089Z,101427.94
2023-04-05T21:47:58.871Z,101432.06
2023-04-05T21:50:30.784Z,101436.63
2023-04-05T21:53:01.631Z,101424.09
2023-04-05T21:55:32.519Z,101426.28
2023-04-05T21:58:03.251Z,101422.28
2023-04-05T22:00:36.943Z,101426.56
2023-04-05T22:03:07.810Z,101421.22
2023-04-05T22:05:39.174Z,101420.78
2023-04-05T22:08:11.453Z,101398.22
2023-04-05T22:10:43.968Z,101416.31
2023-04-05T22:13:15.024Z,101414.34
2023-04-05T22:15:49.449Z,101421.41
2023-04-05T22:18:20.245Z,101413.53
2023-04-05T22:20:51.003Z,101384.47
2023-04-05T22:23:21.816Z,101417.44
2023-04-05T22:25:53.481Z,101417.06
2023-04-05T22:28:24.711Z,101413.84
2023-04-05T22:30:58.417Z,101414.75
2023-04-05T22:33:29.194Z,101404.78
2023-04-05T22:36:00.051Z,101415.44
2023-04-05T22:38:30.925Z,101385.84
2023-04-05T22:41:01.830Z,101398.81
2023-04-05T22:43:32.704Z,101392.84
2023-04-05T22:46:06.175Z,101408.06
2023-04-05T22:48:36.980Z,101402.88
2023-04-05T22:51:08.597Z,101405.56
2023-04-05T22:53:40.935Z,101396.13
2023-04-05T22:56:11.959Z,101401.97
2023-04-05T22:58:42.851Z,101393.72
2023-04-05T23:01:16.315Z,101397.22
2023-04-05T23:03:47.231Z,101387.06
2023-04-05T23:06:18.144Z,101396.84
2023-04-05T23:08:49.149Z,101381.19
2023-04-05T23:11:20.074Z,101388.16
2023-04-05T23:13:51.276Z,101388.84
2023-04-05T23:16:24.871Z,101382.28
2023-04-05T23:18:55.716Z,101384.16
2023-04-05T23:21:26.676Z,101382.16
2023-04-05T23:23:57.718Z,101377.72
2023-04-05T23:26:30.026Z,101346.72
2023-04-05T23:29:00.939Z,101382.16
2023-04-05T23:31:34.791Z,101372.44
2023-04-05T23:34:05.596Z,101341.44
2023-04-05T23:36:36.306Z,101357.66
2023-04-05T23:39:07.734Z,101348.31
2023-04-05T23:41:38.893Z,101369.63
2023-04-05T23:44:09.808Z,101366.94
2023-04-05T23:46:43.388Z,101359.97
2023-04-05T23:49:14.276Z,101339.75
2023-04-05T23:51:45.763Z,101362.66
2023-04-05T23:54:16.694Z,101357.56
2023-04-05T23:56:47.813Z,101355.81
2023-04-05T23:59:18.824Z,101355.38
